Weather History for Medford, WI

Change the Weather History Date:

Tuesday, April 15, 2014

  Actual Average Record
Temperature  
Mean Temperature 22 °F -  
Max Temperature 30 °F 51 °F 84 °F (2002)
Min Temperature 15 °F 32 °F 15 °F (2014)
Degree Days  
Heating Degree Days 42    
Moisture  
Dew Point 12 °F    
Average Humidity 65    
Maximum Humidity 86    
Minimum Humidity 40    
Precipitation  
Precipitation 0.00 in - - ()
Sea Level Pressure  
Sea Level Pressure 30.04 in    
Wind  
Wind Speed 4 mph (West)    
Max Wind Speed 12 mph    
Max Gust Speed 18 mph    
Visibility 10 miles    
Events      
Averages and records for this station are not official NWS values.
T = Trace of Precipitation, MM = Missing Value Source: NWS Daily Summary

Daily Weather History Graph

Daily Weather History Graph

Search for Another Location

Airport:

Trip Planner

Search our weather history database for the weather conditions in past years. The results will help you decide how hot, cold, wet, or windy it might be!

Date:

Astronomy

Apr. 15, 2014 Rise Set
Actual Time 6:16 AM CDT 7:46 PM CDT
Civil Twilight 5:45 AM CDT 8:17 PM CDT
Nautical Twilight 5:08 AM CDT 8:55 PM CDT
Astronomical Twilight 4:28 AM CDT 9:35 PM CDT
Moon 8:30 PM CDT (4/15) 6:23 AM CDT (4/15)
Length of Visible Light 14h 32m
Length of Day
13h 30m
Full, 100% of the Moon is Illuminated
Apr 15
Full
Apr 22
Last Quarter
Apr 29
New
May 6
First Quarter
May 14
Full

Hourly Weather History & Observations

Time (CDT) Temp. Windchill Dew Point Humidity Pressure Visibility Wind Dir Wind Speed Gust Speed Precip Events Conditions
12:15 AM 19.8 °F - 9.0 °F 63% 30.00 in 10.0 mi Calm Calm - N/A   Clear
12:35 AM 19.2 °F - 9.7 °F 66% 30.00 in 10.0 mi Calm Calm - N/A   Clear
12:55 AM 19.0 °F - 11.1 °F 71% 30.00 in 10.0 mi Calm Calm - N/A   Clear
1:15 AM 17.2 °F - 11.7 °F 79% 30.00 in 10.0 mi Calm Calm - N/A   Clear
1:35 AM 18.5 °F - 11.8 °F 75% 30.00 in 10.0 mi Calm Calm - N/A   Clear
1:55 AM 18.5 °F - 13.6 °F 81% 30.00 in 10.0 mi Calm Calm - N/A   Clear
2:15 AM 17.4 °F 12.1 °F 13.8 °F 86% 30.00 in 10.0 mi West 3.5 mph - N/A   Clear
2:35 AM 18.0 °F 12.7 °F 13.6 °F 83% 29.99 in 10.0 mi WNW 3.5 mph - N/A   Scattered Clouds
2:55 AM 17.6 °F 10.7 °F 13.1 °F 83% 30.00 in 10.0 mi West 4.6 mph - N/A   Mostly Cloudy
3:15 AM 18.3 °F 13.1 °F 13.3 °F 81% 30.00 in 10.0 mi WNW 3.5 mph - N/A   Overcast
3:35 AM 18.1 °F 12.9 °F 13.6 °F 83% 30.00 in 10.0 mi WNW 3.5 mph - N/A   Overcast
3:55 AM 17.6 °F 12.3 °F 12.9 °F 82% 30.00 in 10.0 mi WNW 3.5 mph - N/A   Scattered Clouds
4:15 AM 17.4 °F 10.4 °F 12.7 °F 82% 30.00 in 10.0 mi WNW 4.6 mph - N/A   Clear
4:35 AM 17.2 °F 11.9 °F 12.2 °F 81% 30.01 in 10.0 mi WNW 3.5 mph - N/A   Scattered Clouds
4:55 AM 16.3 °F 10.8 °F 12.0 °F 83% 30.01 in 10.0 mi NW 3.5 mph - N/A   Clear
5:15 AM 16.3 °F 10.8 °F 12.2 °F 84% 30.01 in 10.0 mi WNW 3.5 mph - N/A   Clear
5:35 AM 16.3 °F 10.8 °F 12.0 °F 83% 30.01 in 10.0 mi West 3.5 mph - N/A   Clear
5:55 AM 16.2 °F 9.0 °F 11.8 °F 83% 30.01 in 10.0 mi West 4.6 mph - N/A   Clear
6:15 AM 15.8 °F 10.2 °F 11.7 °F 84% 30.02 in 10.0 mi WNW 3.5 mph - N/A   Clear
6:35 AM 15.8 °F 10.2 °F 11.8 °F 84% 30.02 in 10.0 mi WNW 3.5 mph - N/A   Clear
6:55 AM 16.3 °F 9.2 °F 11.7 °F 82% 30.03 in 10.0 mi WNW 4.6 mph - N/A   Clear
7:15 AM 16.7 °F 7.2 °F 11.5 °F 80% 30.04 in 10.0 mi NW 6.9 mph - N/A   Clear
7:35 AM 17.6 °F 6.4 °F 11.8 °F 78% 30.04 in 10.0 mi NNW 9.2 mph - N/A   Clear
7:55 AM 18.0 °F 8.7 °F 12.0 °F 78% 30.04 in 10.0 mi NNW 6.9 mph - N/A   Clear
8:15 AM 18.7 °F 7.0 °F 12.7 °F 78% 30.04 in 10.0 mi NNW 10.4 mph - N/A   Clear
8:35 AM 19.4 °F 8.6 °F 13.3 °F 77% 30.05 in 10.0 mi NW 9.2 mph - N/A   Clear
8:55 AM 20.3 °F 11.5 °F 13.3 °F 74% 30.05 in 10.0 mi NNW 6.9 mph - N/A   Clear
9:15 AM 20.8 °F 14.4 °F 12.6 °F 70% 30.05 in 10.0 mi NW 4.6 mph - N/A   Scattered Clouds
9:35 AM 22.1 °F 13.7 °F 12.6 °F 67% 30.05 in 10.0 mi WNW 6.9 mph - N/A   Scattered Clouds
9:55 AM 22.8 °F 12.9 °F 12.9 °F 66% 30.05 in 10.0 mi NW 9.2 mph - N/A   Mostly Cloudy
10:15 AM 23.2 °F 13.3 °F 11.8 °F 62% 30.05 in 10.0 mi West 9.2 mph - N/A   Overcast
10:35 AM 23.7 °F 14.0 °F 10.9 °F 58% 30.06 in 10.0 mi NW 9.2 mph - N/A   Mostly Cloudy
10:55 AM 23.2 °F 13.3 °F 10.4 °F 58% 30.06 in 10.0 mi NW 9.2 mph - N/A   Overcast
11:35 AM 23.7 °F 13.3 °F 11.3 °F 59% 30.06 in 10.0 mi West 10.4 mph 17.3 mph N/A   Overcast
11:55 AM 23.9 °F 14.2 °F 11.7 °F 60% 30.06 in 10.0 mi West 9.2 mph - N/A   Overcast
12:35 PM 25.5 °F 14.9 °F 9.7 °F 51% 30.06 in 10.0 mi WNW 11.5 mph - N/A   Overcast
1:15 PM 25.3 °F 16.0 °F 11.8 °F 57% 30.06 in 10.0 mi West 9.2 mph 16.1 mph N/A   Overcast
1:35 PM 26.1 °F 18.4 °F 9.9 °F 50% 30.06 in 10.0 mi WSW 6.9 mph - N/A   Mostly Cloudy
1:55 PM 26.6 °F 18.2 °F 10.8 °F 51% 30.06 in 10.0 mi WNW 8.1 mph - N/A   Overcast
2:15 PM 27.0 °F 18.7 °F 9.5 °F 48% 30.05 in 10.0 mi West 8.1 mph - N/A   Overcast
2:35 PM 27.3 °F 19.1 °F 10.9 °F 50% 30.04 in 10.0 mi SW 8.1 mph 11.5 mph N/A   Overcast
2:55 PM 28.2 °F 20.2 °F 11.5 °F 50% 30.04 in 10.0 mi WSW 8.1 mph 17.3 mph N/A   Overcast
3:15 PM 27.9 °F 20.6 °F 10.6 °F 48% 30.04 in 10.0 mi WSW 6.9 mph 17.3 mph N/A   Overcast
3:35 PM 28.9 °F 19.2 °F 11.7 °F 49% 30.04 in 10.0 mi West 11.5 mph 18.4 mph N/A   Mostly Cloudy
3:55 PM 28.4 °F 23.3 °F 10.6 °F 47% 30.03 in 10.0 mi SW 4.6 mph - N/A   Scattered Clouds
4:15 PM 29.3 °F 19.6 °F 10.6 °F 46% 30.03 in 10.0 mi West 11.5 mph 17.3 mph N/A   Mostly Cloudy
4:35 PM 29.5 °F 21.8 °F 10.6 °F 45% 30.03 in 10.0 mi WSW 8.1 mph - N/A   Scattered Clouds
4:55 PM 29.1 °F 20.6 °F 10.6 °F 46% 30.03 in 10.0 mi WSW 9.2 mph - N/A   Mostly Cloudy
5:15 PM 29.1 °F 25.4 °F 7.3 °F 40% 30.03 in 10.0 mi NW 3.5 mph - N/A   Scattered Clouds
5:35 PM 30.2 °F 24.3 °F 11.3 °F 45% 30.03 in 10.0 mi West 5.8 mph 11.5 mph N/A   Scattered Clouds
5:55 PM 30.2 °F 21.9 °F 10.4 °F 44% 30.03 in 10.0 mi WSW 9.2 mph - N/A   Clear
6:15 PM 30.0 °F 23.2 °F 10.2 °F 44% 30.03 in 10.0 mi SSW 6.9 mph - N/A   Clear
6:35 PM 29.8 °F 23.0 °F 11.3 °F 46% 30.04 in 10.0 mi WSW 6.9 mph - N/A   Scattered Clouds
6:55 PM 29.8 °F 23.9 °F 12.0 °F 48% 30.04 in 10.0 mi WSW 5.8 mph - N/A   Scattered Clouds
7:15 PM 29.3 °F 23.2 °F 10.9 °F 46% 30.05 in 10.0 mi SW 5.8 mph - N/A   Clear
7:35 PM 29.3 °F 24.3 °F 12.6 °F 50% 30.05 in 10.0 mi SW 4.6 mph - N/A   Clear
7:55 PM 29.1 °F 24.1 °F 12.4 °F 50% 30.05 in 10.0 mi SW 4.6 mph - N/A   Clear
8:15 PM 28.8 °F 25.0 °F 11.7 °F 49% 30.06 in 10.0 mi SW 3.5 mph - N/A   Clear
8:35 PM 28.4 °F 24.6 °F 13.5 °F 54% 30.07 in 10.0 mi WSW 3.5 mph - N/A   Clear
8:55 PM 28.2 °F 24.4 °F 15.1 °F 58% 30.08 in 10.0 mi SSW 3.5 mph - N/A   Clear
9:15 PM 26.2 °F 22.1 °F 14.5 °F 61% 30.09 in 10.0 mi South 3.5 mph - N/A   Clear
9:35 PM 25.7 °F 21.5 °F 15.1 °F 64% 30.09 in 10.0 mi SSE 3.5 mph - N/A   Clear
9:55 PM 25.7 °F 21.5 °F 15.3 °F 65% 30.09 in 10.0 mi SSE 3.5 mph - N/A   Clear
10:15 PM 25.5 °F 21.3 °F 15.3 °F 65% 30.09 in 10.0 mi SE 3.5 mph - N/A   Clear
10:35 PM 25.0 °F 20.7 °F 14.9 °F 66% 30.10 in 10.0 mi SSE 3.5 mph - N/A   Clear
10:55 PM 24.8 °F 19.1 °F 14.4 °F 65% 30.10 in 10.0 mi SSE 4.6 mph - N/A   Clear
11:15 PM 24.4 °F 18.6 °F 15.6 °F 69% 30.11 in 10.0 mi SSE 4.6 mph - N/A   Clear
11:35 PM 23.9 °F 18.0 °F 15.4 °F 70% 30.11 in 10.0 mi SSE 4.6 mph - N/A   Clear
11:55 PM 23.9 °F 19.5 °F 15.6 °F 71% 30.11 in 10.0 mi SSE 3.5 mph - N/A   Clear